Time;durP1;ratioP1;P1;durP2;ratioP2;P2;SDS_P1;SDS_P2;PMS_P1;PMS_P2;Temp;Humidity;BMP_temperature;BMP_pressure;BME280_temperature;BME280_humidity;BME280_pressure;Samples;Min_cycle;Max_cycle;Signal;HPM_P1;HPM_P2
2023/12/14 00:00:19;;;;;;;3.30;1.17;;;3.70;99.90;;;;;;4987775;28;20121;-84
2023/12/14 00:02:44;;;;;;;2.20;1.25;;;3.70;99.90;;;;;;4987140;28;20027;-84
2023/12/14 00:05:10;;;;;;;2.30;1.45;;;3.70;99.90;;;;;;4988614;28;20111;-84
2023/12/14 00:07:35;;;;;;;3.35;1.48;;;3.70;99.90;;;;;;5012279;28;20080;-84
2023/12/14 00:10:03;;;;;;;1.65;1.30;;;3.70;99.90;;;;;;5007170;28;20031;-86
2023/12/14 00:12:28;;;;;;;1.67;1.05;;;3.80;99.90;;;;;;4998753;28;20030;-85
2023/12/14 00:14:54;;;;;;;2.92;1.10;;;3.80;99.90;;;;;;4996564;28;20050;-86
2023/12/14 00:17:19;;;;;;;3.15;1.33;;;3.80;99.90;;;;;;4994212;28;20046;-85
2023/12/14 00:19:45;;;;;;;6.30;1.55;;;3.90;99.90;;;;;;4997635;28;20038;-85
2023/12/14 00:22:11;;;;;;;3.65;1.42;;;3.90;99.90;;;;;;4993883;28;20034;-85
2023/12/14 00:24:36;;;;;;;4.60;1.70;;;3.90;99.90;;;;;;4991594;28;20122;-85
2023/12/14 00:27:02;;;;;;;5.35;1.67;;;3.90;99.90;;;;;;4991938;28;20529;-84
2023/12/14 00:29:27;;;;;;;3.95;1.98;;;3.90;99.90;;;;;;4989766;28;20034;-85
2023/12/14 00:31:53;;;;;;;4.22;1.48;;;3.90;99.90;;;;;;4994466;28;20080;-85
2023/12/14 00:34:19;;;;;;;1.98;1.52;;;3.90;99.90;;;;;;4993110;28;20030;-86
2023/12/14 00:36:44;;;;;;;2.67;1.45;;;3.90;99.90;;;;;;4991173;28;20027;-85
2023/12/14 00:39:10;;;;;;;2.53;1.48;;;3.90;99.90;;;;;;4989557;28;20038;-84
2023/12/14 00:41:36;;;;;;;4.30;1.42;;;3.90;99.90;;;;;;4992392;28;20038;-85
2023/12/14 00:44:01;;;;;;;2.45;1.25;;;3.90;99.90;;;;;;4990739;28;20694;-84
2023/12/14 00:46:27;;;;;;;1.77;0.75;;;3.90;99.90;;;;;;4990064;28;20037;-84
2023/12/14 00:48:52;;;;;;;2.78;1.45;;;3.80;99.90;;;;;;4983951;28;20606;-85
2023/12/14 00:51:18;;;;;;;1.00;0.68;;;3.90;99.90;;;;;;4991891;28;20129;-85
2023/12/14 00:53:43;;;;;;;3.70;1.10;;;3.90;99.90;;;;;;4987457;28;20061;-85
2023/12/14 00:56:09;;;;;;;1.23;1.13;;;3.90;99.90;;;;;;4986896;28;20027;-85
2023/12/14 00:58:35;;;;;;;3.58;1.45;;;3.90;99.90;;;;;;4991226;28;20122;-85
2023/12/14 01:01:00;;;;;;;1.77;1.15;;;3.80;99.90;;;;;;4992330;28;20054;-85
2023/12/14 01:03:26;;;;;;;2.53;1.63;;;3.90;99.90;;;;;;4987935;28;20043;-85
2023/12/14 01:05:51;;;;;;;2.33;1.58;;;3.90;99.90;;;;;;4990381;28;20113;-85
2023/12/14 01:08:17;;;;;;;2.22;1.40;;;3.90;99.90;;;;;;4991867;28;20716;-84
2023/12/14 01:10:43;;;;;;;2.78;1.38;;;3.80;99.90;;;;;;4986336;28;20113;-86
2023/12/14 01:13:08;;;;;;;2.03;1.45;;;3.80;99.90;;;;;;4986799;28;20026;-85
2023/12/14 01:15:34;;;;;;;4.05;2.03;;;3.80;99.90;;;;;;4986938;28;20030;-85
2023/12/14 01:17:59;;;;;;;4.13;1.83;;;3.80;99.90;;;;;;4988251;28;20084;-84
2023/12/14 01:20:25;;;;;;;2.65;1.60;;;3.80;99.90;;;;;;4991038;28;20353;-85
2023/12/14 01:22:51;;;;;;;3.25;1.63;;;3.80;99.90;;;;;;4987595;28;20741;-84
2023/12/14 01:25:16;;;;;;;4.30;2.00;;;3.80;99.90;;;;;;4986729;28;20042;-85
2023/12/14 01:27:42;;;;;;;4.97;1.63;;;3.80;99.90;;;;;;4988289;28;20034;-84
2023/12/14 01:30:08;;;;;;;2.33;1.75;;;3.80;99.90;;;;;;4982757;28;20563;-85
2023/12/14 01:32:33;;;;;;;4.30;2.22;;;3.80;99.90;;;;;;4978399;28;20026;-84
2023/12/14 01:34:59;;;;;;;2.55;1.65;;;3.80;99.90;;;;;;4989026;28;20766;-84
2023/12/14 01:37:24;;;;;;;4.40;2.55;;;3.80;99.90;;;;;;4988627;28;20085;-85
2023/12/14 01:39:50;;;;;;;2.63;1.55;;;3.80;99.90;;;;;;4986971;28;20027;-84
2023/12/14 01:42:15;;;;;;;5.32;1.88;;;3.80;99.90;;;;;;4986835;28;20038;-84
2023/12/14 01:44:41;;;;;;;6.68;1.83;;;3.80;99.90;;;;;;4985462;28;20667;-84
2023/12/14 01:47:06;;;;;;;6.80;2.00;;;3.80;99.90;;;;;;4990034;28;20378;-84
2023/12/14 01:49:32;;;;;;;2.22;1.58;;;3.70;99.90;;;;;;4988858;28;20460;-84
2023/12/14 01:51:57;;;;;;;3.25;1.65;;;3.70;99.90;;;;;;4989684;28;20021;-84
2023/12/14 01:54:23;;;;;;;5.65;1.52;;;3.80;99.90;;;;;;4989558;28;20970;-84
2023/12/14 01:56:48;;;;;;;4.43;1.30;;;3.80;99.90;;;;;;4988807;28;20037;-84
2023/12/14 01:59:14;;;;;;;2.50;1.50;;;3.80;99.90;;;;;;4988532;28;20034;-84
2023/12/14 02:01:51;;;;;;;4.53;1.65;;;3.80;99.90;;;;;;4985395;28;20041;-84
2023/12/14 02:04:17;;;;;;;3.72;1.88;;;3.80;99.90;;;;;;5003154;28;20034;-84
2023/12/14 02:06:43;;;;;;;2.42;1.30;;;3.80;99.90;;;;;;4988880;28;20022;-85
2023/12/14 02:09:09;;;;;;;2.85;1.63;;;3.80;99.90;;;;;;4988865;28;20030;-85
2023/12/14 02:11:35;;;;;;;5.85;1.80;;;3.80;99.90;;;;;;4988588;28;20825;-85
2023/12/14 02:14:09;;;;;;;3.70;1.48;;;3.80;99.90;;;;;;4980016;28;20030;-85
2023/12/14 02:16:35;;;;;;;3.05;1.55;;;3.80;99.90;;;;;;4991202;28;20036;-85
2023/12/14 02:19:00;;;;;;;1.85;1.67;;;3.80;99.90;;;;;;4984859;28;20031;-84
2023/12/14 02:21:26;;;;;;;2.38;1.98;;;3.80;99.90;;;;;;4982754;28;20498;-84
2023/12/14 02:23:52;;;;;;;7.20;1.90;;;3.80;99.90;;;;;;4988835;28;20382;-86
2023/12/14 02:26:17;;;;;;;5.20;1.98;;;3.70;99.90;;;;;;4983476;28;20081;-85
2023/12/14 02:28:43;;;;;;;6.85;1.95;;;3.70;99.90;;;;;;5000830;22;20041;-60
2023/12/14 02:31:08;;;;;;;5.22;2.05;;;3.70;99.90;;;;;;5002839;28;20397;-60
2023/12/14 02:33:34;;;;;;;3.47;1.70;;;3.80;99.90;;;;;;4997481;28;20525;-60
2023/12/14 02:36:00;;;;;;;3.33;1.48;;;3.80;99.90;;;;;;4999757;28;20026;-57
2023/12/14 02:38:26;;;;;;;1.63;1.23;;;3.80;99.90;;;;;;4996663;28;20040;-60
2023/12/14 02:40:52;;;;;;;4.82;2.08;;;3.80;99.90;;;;;;5000423;28;20487;-60
2023/12/14 02:43:18;;;;;;;3.53;1.80;;;3.80;99.90;;;;;;5000329;28;20036;-58
2023/12/14 02:45:44;;;;;;;5.82;1.70;;;3.80;99.90;;;;;;4998853;28;20031;-60
2023/12/14 02:48:10;;;;;;;4.45;2.22;;;3.80;99.90;;;;;;5001597;28;20080;-56
2023/12/14 02:50:35;;;;;;;4.68;1.73;;;3.80;99.90;;;;;;4999931;28;20029;-60
2023/12/14 02:53:01;;;;;;;2.90;1.52;;;3.90;99.90;;;;;;5001689;28;20383;-60
2023/12/14 02:55:26;;;;;;;4.53;1.85;;;3.90;99.90;;;;;;4998561;28;20026;-58
2023/12/14 02:57:52;;;;;;;3.85;1.48;;;3.80;99.90;;;;;;5000643;28;20482;-60
2023/12/14 03:00:18;;;;;;;2.22;1.30;;;3.80;99.90;;;;;;5001395;28;20044;-62
2023/12/14 03:02:43;;;;;;;1.85;1.05;;;3.90;99.90;;;;;;5002291;28;20035;-58
2023/12/14 03:05:09;;;;;;;2.17;1.73;;;3.80;99.90;;;;;;5000708;28;20092;-58
2023/12/14 03:07:34;;;;;;;3.30;1.50;;;3.80;99.90;;;;;;5000922;28;20049;-57
2023/12/14 03:10:00;;;;;;;3.35;1.40;;;3.80;99.90;;;;;;5003850;28;20038;-60
2023/12/14 03:12:25;;;;;;;2.28;1.20;;;3.80;99.90;;;;;;5002480;28;20030;-59
2023/12/14 03:14:51;;;;;;;3.47;1.63;;;3.80;99.90;;;;;;5003835;28;20022;-59
2023/12/14 03:17:17;;;;;;;2.83;1.70;;;3.80;99.90;;;;;;5002942;28;20105;-58
2023/12/14 03:19:42;;;;;;;2.45;1.63;;;3.80;99.90;;;;;;5002307;28;20119;-58
2023/12/14 03:22:09;;;;;;;2.10;1.42;;;3.80;99.90;;;;;;5004476;28;20034;-58
2023/12/14 03:24:35;;;;;;;3.80;1.50;;;3.80;99.90;;;;;;5004588;28;20034;-58
2023/12/14 03:27:02;;;;;;;6.50;1.58;;;3.80;99.90;;;;;;5001105;28;20022;-60
2023/12/14 03:29:28;;;;;;;3.08;2.03;;;3.80;99.90;;;;;;5004311;28;20058;-59
2023/12/14 03:31:55;;;;;;;2.13;1.50;;;3.80;99.90;;;;;;5002553;28;20037;-59
2023/12/14 03:34:21;;;;;;;3.63;2.28;;;3.80;99.90;;;;;;5000427;28;20026;-58
2023/12/14 03:36:46;;;;;;;3.38;1.98;;;3.80;99.90;;;;;;5001359;28;20400;-58
2023/12/14 03:39:12;;;;;;;2.83;2.13;;;3.80;99.90;;;;;;5004326;28;20062;-58
2023/12/14 03:41:37;;;;;;;3.20;2.20;;;3.80;99.90;;;;;;5004568;28;20076;-58
2023/12/14 03:44:03;;;;;;;3.10;1.95;;;3.80;99.90;;;;;;5004846;28;20092;-60
2023/12/14 03:46:29;;;;;;;4.20;2.42;;;3.80;99.90;;;;;;5000426;28;20028;-60
2023/12/14 03:48:55;;;;;;;3.70;2.50;;;3.80;99.90;;;;;;5005177;28;20029;-56
2023/12/14 03:51:20;;;;;;;4.32;2.28;;;3.80;99.90;;;;;;5005419;28;20026;-58
2023/12/14 03:53:46;;;;;;;5.07;2.30;;;3.80;99.90;;;;;;5004204;28;20076;-62
2023/12/14 03:56:12;;;;;;;4.15;2.30;;;3.80;99.90;;;;;;5004717;28;20084;-60
2023/12/14 03:58:38;;;;;;;4.43;1.95;;;3.70;99.90;;;;;;5003867;28;20030;-58
2023/12/14 04:01:04;;;;;;;5.00;2.15;;;3.70;99.90;;;;;;5003320;28;21736;-59
2023/12/14 04:03:29;;;;;;;6.53;2.05;;;3.70;99.90;;;;;;5001047;28;20096;-59
2023/12/14 04:05:55;;;;;;;3.70;1.92;;;3.70;99.90;;;;;;5003128;28;20077;-59
2023/12/14 04:08:20;;;;;;;3.53;2.42;;;3.70;99.90;;;;;;5004240;28;20471;-59
2023/12/14 04:10:46;;;;;;;5.53;2.15;;;3.70;99.90;;;;;;5003339;28;20491;-60
2023/12/14 04:13:11;;;;;;;5.32;2.25;;;3.70;99.90;;;;;;5000649;28;20026;-60
2023/12/14 04:15:37;;;;;;;4.30;2.30;;;3.70;99.90;;;;;;4999494;28;20091;-59
2023/12/14 04:18:03;;;;;;;6.50;2.50;;;3.60;99.90;;;;;;5000824;28;20557;-60
2023/12/14 04:20:29;;;;;;;4.60;2.50;;;3.60;99.90;;;;;;5002004;28;20029;-60
2023/12/14 04:22:55;;;;;;;5.95;2.63;;;3.60;99.90;;;;;;4998988;28;20032;-58
2023/12/14 04:25:20;;;;;;;5.65;2.90;;;3.60;99.90;;;;;;5000001;28;20056;-60
2023/12/14 04:27:46;;;;;;;4.15;2.63;;;3.60;99.90;;;;;;5002497;28;20068;-57
2023/12/14 04:30:11;;;;;;;6.10;2.83;;;3.60;99.90;;;;;;5009251;28;20054;-58
2023/12/14 04:32:38;;;;;;;4.10;3.20;;;3.60;99.90;;;;;;5004485;28;20100;-58
2023/12/14 04:35:04;;;;;;;7.65;3.28;;;3.50;99.90;;;;;;5002970;28;20148;-58
2023/12/14 04:37:30;;;;;;;8.13;2.97;;;3.50;99.90;;;;;;5000308;28;20566;-59
2023/12/14 04:39:57;;;;;;;5.45;3.20;;;3.50;99.90;;;;;;5003624;28;20052;-60
2023/12/14 04:42:22;;;;;;;8.77;3.10;;;3.50;99.90;;;;;;5001189;28;20034;-60
2023/12/14 04:44:48;;;;;;;10.60;3.65;;;3.40;99.90;;;;;;5004765;28;20088;-57
2023/12/14 04:47:14;;;;;;;6.57;3.35;;;3.40;99.90;;;;;;5004155;28;20030;-59
2023/12/14 04:49:40;;;;;;;6.72;3.30;;;3.40;99.90;;;;;;5004098;28;20073;-60
2023/12/14 04:52:06;;;;;;;4.60;2.90;;;3.40;99.90;;;;;;5000782;28;20578;-60
2023/12/14 04:54:31;;;;;;;7.18;3.05;;;3.40;99.90;;;;;;4998908;28;20052;-59
2023/12/14 04:56:57;;;;;;;5.35;3.13;;;3.30;99.90;;;;;;5002271;28;20030;-60
2023/12/14 04:59:22;;;;;;;4.05;2.75;;;3.30;99.90;;;;;;5003040;28;20061;-58
2023/12/14 05:01:48;;;;;;;5.93;3.42;;;3.30;99.90;;;;;;5002830;28;20482;-58
2023/12/14 05:04:13;;;;;;;9.35;4.30;;;3.30;99.90;;;;;;5004799;28;20084;-60
2023/12/14 05:06:39;;;;;;;5.38;3.72;;;3.30;99.90;;;;;;5002180;28;20026;-60
2023/12/14 05:09:06;;;;;;;9.25;3.85;;;3.30;99.90;;;;;;5006523;28;20103;-57
2023/12/14 05:11:32;;;;;;;4.97;3.40;;;3.30;99.90;;;;;;5000948;28;20022;-60
2023/12/14 05:13:58;;;;;;;5.88;3.42;;;3.30;99.90;;;;;;5002376;28;20163;-60
2023/12/14 05:16:27;;;;;;;5.50;3.63;;;3.20;99.90;;;;;;4998970;28;20632;-58
2023/12/14 05:18:53;;;;;;;5.55;3.58;;;3.20;99.90;;;;;;4998100;28;20100;-58
2023/12/14 05:21:19;;;;;;;6.00;3.63;;;3.20;99.90;;;;;;5004541;28;20084;-59
2023/12/14 05:23:45;;;;;;;5.75;3.65;;;3.20;99.90;;;;;;5001992;28;20453;-59
2023/12/14 05:26:10;;;;;;;10.93;4.35;;;3.20;99.90;;;;;;5002110;28;20030;-59
2023/12/14 05:28:36;;;;;;;7.32;3.95;;;3.20;99.90;;;;;;5000727;28;20406;-59
2023/12/14 05:31:02;;;;;;;8.77;3.85;;;3.20;99.90;;;;;;5001644;28;20500;-58
2023/12/14 05:33:28;;;;;;;5.82;3.92;;;3.10;99.90;;;;;;4996328;28;20113;-58
2023/12/14 05:35:54;;;;;;;6.15;3.90;;;3.10;99.90;;;;;;5000126;28;20092;-57
2023/12/14 05:38:19;;;;;;;5.70;3.28;;;3.20;99.90;;;;;;5001926;28;20030;-56
2023/12/14 05:40:45;;;;;;;6.55;3.90;;;3.20;99.90;;;;;;5000564;28;20022;-60
2023/12/14 05:43:11;;;;;;;6.40;4.30;;;3.20;99.90;;;;;;5002310;28;20034;-57
2023/12/14 05:45:36;;;;;;;4.95;3.45;;;3.20;99.90;;;;;;4998389;28;20080;-58
2023/12/14 05:48:05;;;;;;;5.57;3.95;;;3.10;99.90;;;;;;5003962;28;20030;-56
2023/12/14 05:50:31;;;;;;;7.05;3.97;;;3.20;99.90;;;;;;5001262;28;20208;-57
2023/12/14 05:52:56;;;;;;;7.57;3.13;;;3.10;99.90;;;;;;5001505;28;20040;-57
2023/12/14 05:55:22;;;;;;;5.28;3.42;;;3.10;99.90;;;;;;5014901;28;20034;-56
2023/12/14 05:57:48;;;;;;;4.50;3.58;;;3.20;99.90;;;;;;5000818;28;20086;-59
2023/12/14 06:00:14;;;;;;;10.07;3.90;;;3.10;99.90;;;;;;5001447;28;20033;-59
2023/12/14 06:02:39;;;;;;;9.05;3.42;;;3.10;99.90;;;;;;5001503;28;20513;-58
2023/12/14 06:05:07;;;;;;;9.25;3.85;;;3.10;99.90;;;;;;4998635;28;20029;-58
2023/12/14 06:07:32;;;;;;;8.20;4.65;;;3.10;99.90;;;;;;5001341;28;20466;-57
2023/12/14 06:09:58;;;;;;;5.65;3.85;;;3.10;99.90;;;;;;5001616;28;20200;-59
2023/12/14 06:12:24;;;;;;;7.40;4.40;;;3.10;99.90;;;;;;5000153;28;20172;-57
2023/12/14 06:14:50;;;;;;;8.07;4.53;;;3.10;99.90;;;;;;5001646;28;20457;-59
2023/12/14 06:17:16;;;;;;;6.93;4.05;;;3.10;99.90;;;;;;4999884;28;20544;-59
2023/12/14 06:19:41;;;;;;;6.70;4.18;;;3.10;99.90;;;;;;4997271;28;20032;-58
2023/12/14 06:22:07;;;;;;;6.72;3.95;;;3.10;99.90;;;;;;4996996;28;20414;-59
2023/12/14 06:24:33;;;;;;;8.45;4.57;;;3.10;99.90;;;;;;4998155;28;20037;-58
2023/12/14 06:26:58;;;;;;;7.55;4.72;;;3.10;99.90;;;;;;4998796;28;20041;-58
2023/12/14 06:29:24;;;;;;;8.20;4.50;;;3.10;99.90;;;;;;5001703;28;20526;-59
2023/12/14 06:31:51;;;;;;;6.43;4.30;;;3.10;99.90;;;;;;5001333;28;20032;-58
2023/12/14 06:34:17;;;;;;;10.65;5.18;;;3.10;99.90;;;;;;5001702;28;20445;-60
2023/12/14 06:36:45;;;;;;;6.97;4.20;;;3.10;99.90;;;;;;5002869;28;20030;-61
2023/12/14 06:39:11;;;;;;;9.30;4.97;;;3.10;99.90;;;;;;5002173;28;20105;-60
2023/12/14 06:41:37;;;;;;;10.07;5.00;;;3.10;99.90;;;;;;5002584;28;20134;-60
2023/12/14 06:44:03;;;;;;;8.95;4.72;;;3.10;99.90;;;;;;5000118;28;20419;-60
2023/12/14 06:46:29;;;;;;;8.63;5.35;;;3.10;99.90;;;;;;5002412;28;20026;-59
2023/12/14 06:48:55;;;;;;;12.48;5.90;;;3.00;99.90;;;;;;4999473;28;20085;-60
2023/12/14 06:51:21;;;;;;;11.20;5.80;;;3.00;99.90;;;;;;5001517;28;20030;-59
2023/12/14 06:53:47;;;;;;;6.75;4.57;;;3.10;99.90;;;;;;4999484;28;20085;-58
2023/12/14 06:56:13;;;;;;;6.68;4.85;;;3.00;99.90;;;;;;4998192;28;20050;-59
2023/12/14 06:58:40;;;;;;;7.80;4.80;;;3.10;99.90;;;;;;4998444;28;20068;-59
2023/12/14 07:01:06;;;;;;;9.77;5.45;;;3.10;99.90;;;;;;5001510;28;20034;-59
2023/12/14 07:03:32;;;;;;;9.18;5.40;;;3.10;99.90;;;;;;4996367;28;20030;-59
2023/12/14 07:05:58;;;;;;;7.88;4.70;;;3.10;99.90;;;;;;5002396;28;20113;-58
2023/12/14 07:08:24;;;;;;;9.07;5.95;;;3.00;99.90;;;;;;4999890;28;20042;-60
2023/12/14 07:10:50;;;;;;;9.70;5.63;;;3.00;99.90;;;;;;4997605;28;20064;-60
2023/12/14 07:13:15;;;;;;;9.73;4.68;;;3.00;99.90;;;;;;5000305;28;20031;-57
2023/12/14 07:15:41;;;;;;;11.90;5.82;;;3.00;99.90;;;;;;4999677;28;20022;-59
2023/12/14 07:18:06;;;;;;;6.88;5.13;;;3.10;99.90;;;;;;5000086;28;20030;-59
2023/12/14 07:20:32;;;;;;;10.07;4.88;;;3.00;99.90;;;;;;4998166;28;20030;-59
2023/12/14 07:22:57;;;;;;;9.45;5.65;;;3.00;99.90;;;;;;5000430;28;20391;-56
2023/12/14 07:25:23;;;;;;;8.98;5.03;;;3.00;99.90;;;;;;4996288;28;20113;-59
2023/12/14 07:27:49;;;;;;;6.65;4.90;;;3.00;99.90;;;;;;5000870;28;20096;-59
2023/12/14 07:30:14;;;;;;;9.38;5.95;;;3.00;99.90;;;;;;5001525;28;20072;-58
2023/12/14 07:32:40;;;;;;;7.38;5.18;;;3.00;99.90;;;;;;5001367;28;20038;-59
2023/12/14 07:35:06;;;;;;;9.30;5.20;;;3.10;99.90;;;;;;4998020;28;20022;-58
2023/12/14 07:37:31;;;;;;;7.57;5.35;;;3.10;99.90;;;;;;5002015;28;20036;-59
2023/12/14 07:39:58;;;;;;;10.77;5.18;;;3.00;99.90;;;;;;5000280;28;20101;-58
2023/12/14 07:42:23;;;;;;;7.03;4.88;;;3.00;99.90;;;;;;4996149;28;20037;-59
2023/12/14 07:44:49;;;;;;;9.45;4.93;;;3.10;99.90;;;;;;5001909;28;20029;-57
2023/12/14 07:47:15;;;;;;;9.60;5.65;;;3.10;99.90;;;;;;5001615;28;20034;-59
2023/12/14 07:49:40;;;;;;;7.20;4.50;;;3.10;99.90;;;;;;5001983;28;20099;-58
2023/12/14 07:52:06;;;;;;;6.68;4.60;;;3.10;99.90;;;;;;4999370;28;20230;-59
2023/12/14 07:54:32;;;;;;;7.57;4.78;;;3.10;99.90;;;;;;5003359;28;20034;-58
2023/12/14 07:56:57;;;;;;;7.32;4.55;;;3.10;99.90;;;;;;5000806;28;20026;-58
2023/12/14 07:59:23;;;;;;;8.10;5.30;;;3.10;99.90;;;;;;5000355;28;20041;-60
2023/12/14 08:01:49;;;;;;;7.22;4.60;;;3.10;99.90;;;;;;5001553;28;20036;-58
2023/12/14 08:04:15;;;;;;;8.57;4.53;;;3.10;99.90;;;;;;4999275;28;20033;-57
2023/12/14 08:06:41;;;;;;;12.60;5.05;;;3.10;99.90;;;;;;5018933;28;20034;-57
2023/12/14 08:09:06;;;;;;;9.25;4.95;;;3.10;99.90;;;;;;5001975;28;20494;-58
2023/12/14 08:11:32;;;;;;;7.13;4.07;;;3.10;99.90;;;;;;5000902;28;20159;-60
2023/12/14 08:13:58;;;;;;;9.38;4.32;;;3.10;99.90;;;;;;5002649;28;20030;-58
2023/12/14 08:16:24;;;;;;;12.90;4.28;;;3.10;99.90;;;;;;5002736;28;20037;-59
2023/12/14 08:18:49;;;;;;;6.40;4.10;;;3.10;99.90;;;;;;5001974;28;20034;-60
2023/12/14 08:21:15;;;;;;;13.48;4.05;;;3.20;99.90;;;;;;5001445;28;20037;-56
2023/12/14 08:23:42;;;;;;;7.45;4.03;;;3.20;99.90;;;;;;5000788;28;20037;-58
2023/12/14 08:26:09;;;;;;;8.20;4.32;;;3.20;99.90;;;;;;5004776;28;20076;-56
2023/12/14 08:28:35;;;;;;;7.55;4.80;;;3.20;99.90;;;;;;5002048;28;20034;-59
2023/12/14 08:31:02;;;;;;;10.75;4.47;;;3.20;99.90;;;;;;5003404;28;20030;-58
2023/12/14 08:33:28;;;;;;;10.98;5.05;;;3.20;99.90;;;;;;5005063;28;20080;-59
2023/12/14 08:35:54;;;;;;;15.50;5.32;;;3.20;99.90;;;;;;5002889;28;20164;-60
2023/12/14 08:38:20;;;;;;;11.20;5.30;;;3.20;99.90;;;;;;5004037;28;20630;-57
2023/12/14 08:40:45;;;;;;;10.60;4.82;;;3.20;99.90;;;;;;5002984;28;20026;-58
2023/12/14 08:43:11;;;;;;;8.20;4.63;;;3.20;99.90;;;;;;5004863;28;20049;-60
2023/12/14 08:45:37;;;;;;;6.20;4.22;;;3.20;99.90;;;;;;5000682;28;20029;-59
2023/12/14 08:48:03;;;;;;;6.05;4.13;;;3.20;99.90;;;;;;5005741;28;20022;-59
2023/12/14 08:50:28;;;;;;;6.97;4.72;;;3.10;99.90;;;;;;4999813;28;20034;-58
2023/12/14 08:52:54;;;;;;;5.78;4.40;;;3.10;99.90;;;;;;5000466;28;20030;-58
2023/12/14 08:55:20;;;;;;;7.50;4.07;;;3.10;99.90;;;;;;5002576;28;20026;-58
2023/12/14 08:57:45;;;;;;;6.60;4.18;;;3.10;99.90;;;;;;5002508;28;20030;-57
2023/12/14 09:00:12;;;;;;;7.57;3.80;;;3.10;99.90;;;;;;4998299;28;20755;-59
2023/12/14 09:02:37;;;;;;;6.47;3.80;;;3.10;99.90;;;;;;5004570;28;20059;-60
2023/12/14 09:05:04;;;;;;;6.78;3.88;;;3.10;99.90;;;;;;5000142;28;20058;-57
2023/12/14 09:07:30;;;;;;;6.40;3.88;;;3.20;99.90;;;;;;5000517;28;20026;-59
2023/12/14 09:09:56;;;;;;;8.00;4.07;;;3.20;99.90;;;;;;5003359;28;20091;-59
2023/12/14 09:12:21;;;;;;;6.63;4.03;;;3.10;99.90;;;;;;5000796;28;20038;-57
2023/12/14 09:14:47;;;;;;;8.45;4.32;;;3.10;99.90;;;;;;4997802;28;20117;-57
2023/12/14 09:17:13;;;;;;;5.65;4.47;;;3.20;99.90;;;;;;4998592;28;20034;-57
2023/12/14 09:19:38;;;;;;;6.32;4.45;;;3.10;99.90;;;;;;4995990;28;20349;-62
2023/12/14 09:22:04;;;;;;;9.05;4.32;;;3.10;99.90;;;;;;5003151;28;20021;-60
2023/12/14 09:24:30;;;;;;;5.75;4.10;;;3.20;99.90;;;;;;4999230;28;20030;-59
2023/12/14 09:26:55;;;;;;;5.30;3.78;;;3.20;99.90;;;;;;4997531;28;20414;-60
2023/12/14 09:29:21;;;;;;;8.68;4.40;;;3.10;99.90;;;;;;5002678;28;20033;-61
2023/12/14 09:31:46;;;;;;;8.57;4.38;;;3.20;99.90;;;;;;5003428;28;20111;-60
2023/12/14 09:34:12;;;;;;;6.50;4.53;;;3.20;99.90;;;;;;5003350;28;20025;-60
2023/12/14 09:36:39;;;;;;;6.45;4.13;;;3.20;99.90;;;;;;5001272;28;20030;-59
2023/12/14 09:39:05;;;;;;;6.72;4.28;;;3.30;99.90;;;;;;4999952;28;20631;-59
2023/12/14 09:41:31;;;;;;;5.72;3.97;;;3.30;99.90;;;;;;5001474;28;20026;-58
2023/12/14 09:43:58;;;;;;;7.65;4.20;;;3.30;99.90;;;;;;4998453;28;20657;-58
2023/12/14 09:46:25;;;;;;;5.72;3.80;;;3.30;99.90;;;;;;5017125;28;20034;-60
2023/12/14 09:48:52;;;;;;;7.13;4.03;;;3.30;99.90;;;;;;5001927;28;20030;-59
2023/12/14 09:51:18;;;;;;;6.22;3.92;;;3.30;99.90;;;;;;5000475;28;20062;-60
2023/12/14 09:53:44;;;;;;;7.45;4.32;;;3.30;99.90;;;;;;5001618;28;20088;-60
2023/12/14 09:56:10;;;;;;;7.53;4.45;;;3.40;99.90;;;;;;5000252;28;20031;-57
2023/12/14 09:58:36;;;;;;;6.97;4.38;;;3.40;99.90;;;;;;5002985;28;20042;-58
2023/12/14 10:01:04;;;;;;;6.38;4.25;;;3.40;99.90;;;;;;5002990;28;20022;-58
2023/12/14 10:03:31;;;;;;;6.90;4.32;;;3.40;99.90;;;;;;5001161;28;20138;-59
2023/12/14 10:05:58;;;;;;;4.93;3.58;;;3.40;99.90;;;;;;5001223;28;20107;-60
2023/12/14 10:08:25;;;;;;;5.90;3.53;;;3.40;99.90;;;;;;5001053;28;20389;-59
2023/12/14 10:10:55;;;;;;;6.93;4.03;;;3.50;99.90;;;;;;4995720;28;20486;-59
2023/12/14 10:13:50;;;;;;;6.10;4.10;;;3.50;99.90;;;;;;5001476;28;20054;-60
2023/12/14 10:16:30;;;;;;;7.25;4.28;;;3.40;99.90;;;;;;4993833;28;20530;-59
2023/12/14 10:18:57;;;;;;;5.85;3.47;;;3.50;99.90;;;;;;4996683;28;20384;-57
2023/12/14 10:21:24;;;;;;;7.43;3.55;;;3.50;99.90;;;;;;4992740;28;20125;-59
2023/12/14 10:23:49;;;;;;;6.13;3.65;;;3.50;99.90;;;;;;5002441;28;20138;-59
2023/12/14 10:26:15;;;;;;;6.63;4.10;;;3.50;99.90;;;;;;4999137;28;20018;-57
2023/12/14 10:28:41;;;;;;;6.20;3.95;;;3.60;99.90;;;;;;5000181;28;20562;-58
2023/12/14 10:31:10;;;;;;;9.63;3.88;;;3.60;99.90;;;;;;4999872;28;20092;-59
2023/12/14 10:33:35;;;;;;;6.60;4.20;;;3.60;99.90;;;;;;5002926;28;20026;-58
2023/12/14 10:36:01;;;;;;;6.07;4.03;;;3.60;99.90;;;;;;4998439;28;20022;-59
2023/12/14 10:38:29;;;;;;;5.35;3.92;;;3.60;99.90;;;;;;5015996;28;20075;-59
2023/12/14 10:40:57;;;;;;;7.15;4.53;;;3.60;99.90;;;;;;4997600;28;20026;-58
2023/12/14 10:43:22;;;;;;;7.03;4.85;;;3.60;99.90;;;;;;5002096;28;20513;-59
2023/12/14 10:45:48;;;;;;;7.88;3.92;;;3.60;99.90;;;;;;5000848;28;20034;-58
2023/12/14 10:48:13;;;;;;;6.40;4.05;;;3.60;99.90;;;;;;4999193;28;20025;-58
2023/12/14 10:50:42;;;;;;;7.32;4.05;;;3.60;99.90;;;;;;4999878;28;20033;-57
2023/12/14 10:53:09;;;;;;;6.57;3.95;;;3.60;99.90;;;;;;5002716;28;20611;-58
2023/12/14 10:55:41;;;;;;;6.38;4.13;;;3.60;99.90;;;;;;5000323;28;20248;-58
2023/12/14 10:58:09;;;;;;;5.32;4.25;;;3.60;99.90;;;;;;5001627;28;20486;-57
2023/12/14 11:00:36;;;;;;;7.28;4.10;;;3.60;99.90;;;;;;5000167;28;20029;-58
2023/12/14 11:03:04;;;;;;;9.15;4.32;;;3.60;99.90;;;;;;4998510;28;20550;-58
2023/12/14 11:05:32;;;;;;;7.90;4.32;;;3.60;99.90;;;;;;5000740;28;20022;-58
2023/12/14 11:08:05;;;;;;;7.20;3.85;;;3.60;99.90;;;;;;4997961;28;20026;-57
2023/12/14 11:10:43;;;;;;;5.25;4.32;;;3.60;99.90;;;;;;5000313;28;20054;-60
2023/12/14 11:13:12;;;;;;;6.22;3.55;;;3.60;99.90;;;;;;4997972;28;20065;-60
2023/12/14 11:15:38;;;;;;;6.88;3.80;;;3.60;99.90;;;;;;5015696;28;20561;-57
2023/12/14 11:18:10;;;;;;;9.63;4.65;;;3.60;99.90;;;;;;4997269;28;20023;-59
2023/12/14 11:20:44;;;;;;;5.95;3.78;;;3.60;99.90;;;;;;4999308;28;20041;-59
2023/12/14 11:23:13;;;;;;;7.88;4.82;;;3.60;99.90;;;;;;4999982;28;20030;-57
2023/12/14 11:25:40;;;;;;;6.75;3.97;;;3.60;99.90;;;;;;5002561;28;20180;-59
2023/12/14 11:28:07;;;;;;;6.82;4.20;;;3.60;99.90;;;;;;5000116;28;20026;-56
2023/12/14 11:30:34;;;;;;;7.05;3.78;;;3.60;99.90;;;;;;5002630;28;20041;-58
2023/12/14 11:33:00;;;;;;;5.55;4.50;;;3.60;99.90;;;;;;5000446;28;20030;-56
2023/12/14 11:35:25;;;;;;;6.85;4.45;;;3.60;99.90;;;;;;5004395;28;20103;-59
2023/12/14 11:37:51;;;;;;;8.85;4.90;;;3.60;99.90;;;;;;5002573;28;20685;-59
2023/12/14 11:40:22;;;;;;;6.93;3.92;;;3.60;99.90;;;;;;5006158;28;20076;-58
2023/12/14 11:43:01;;;;;;;5.80;3.67;;;3.60;99.90;;;;;;5005456;28;20168;-59
2023/12/14 11:45:27;;;;;;;5.50;4.35;;;3.60;99.90;;;;;;5003992;28;20054;-56
2023/12/14 11:47:53;;;;;;;7.85;4.30;;;3.60;99.90;;;;;;5001928;28;20034;-59
2023/12/14 11:50:20;;;;;;;8.70;4.28;;;3.70;99.90;;;;;;5002134;28;20520;-58
2023/12/14 11:52:45;;;;;;;7.50;3.90;;;3.60;99.90;;;;;;5001891;28;20022;-59
2023/12/14 11:55:11;;;;;;;5.47;4.13;;;3.60;99.90;;;;;;5001853;28;20461;-59
2023/12/14 11:57:37;;;;;;;8.23;4.45;;;3.60;99.90;;;;;;5002709;28;20034;-59
2023/12/14 12:00:04;;;;;;;5.53;3.90;;;3.60;99.90;;;;;;5000628;28;20520;-57
2023/12/14 12:02:30;;;;;;;6.43;3.72;;;3.60;99.90;;;;;;5002938;28;20057;-58
2023/12/14 12:04:55;;;;;;;10.00;4.47;;;3.60;99.90;;;;;;5003374;28;20026;-58
2023/12/14 12:07:21;;;;;;;10.02;4.57;;;3.60;99.90;;;;;;5004161;28;20034;-57
2023/12/14 12:09:47;;;;;;;5.53;4.07;;;3.60;99.90;;;;;;5004784;28;20548;-58
2023/12/14 12:12:13;;;;;;;5.55;3.92;;;3.60;99.90;;;;;;5001429;28;20100;-58
2023/12/14 12:14:40;;;;;;;6.32;3.85;;;3.60;99.90;;;;;;5003697;28;20108;-59
2023/12/14 12:17:06;;;;;;;7.07;4.65;;;3.60;99.90;;;;;;5001343;28;20040;-59
2023/12/14 12:19:34;;;;;;;6.03;4.63;;;3.60;99.90;;;;;;5002807;28;20054;-60
2023/12/14 12:22:00;;;;;;;10.57;4.53;;;3.60;99.90;;;;;;5001188;28;20113;-60
2023/12/14 12:24:25;;;;;;;10.73;4.50;;;3.50;99.90;;;;;;5003197;28;20701;-59
2023/12/14 12:26:51;;;;;;;11.00;5.13;;;3.50;99.90;;;;;;5004031;28;20041;-59
2023/12/14 12:29:16;;;;;;;8.23;4.53;;;3.50;99.90;;;;;;5002564;28;20022;-60
2023/12/14 12:31:44;;;;;;;6.00;4.30;;;3.50;99.90;;;;;;5004504;28;20105;-59
2023/12/14 12:34:11;;;;;;;6.47;4.60;;;3.50;99.90;;;;;;5001796;28;20022;-59
2023/12/14 12:36:37;;;;;;;7.18;4.13;;;3.50;99.90;;;;;;5003401;28;20072;-60
2023/12/14 12:39:03;;;;;;;8.52;4.63;;;3.60;99.90;;;;;;5003117;28;20053;-60
2023/12/14 12:41:28;;;;;;;7.55;4.50;;;3.60;99.90;;;;;;5002740;28;20053;-58
2023/12/14 12:43:54;;;;;;;5.72;4.15;;;3.60;99.90;;;;;;5002038;28;20030;-59
2023/12/14 12:46:20;;;;;;;6.65;5.07;;;3.60;99.90;;;;;;5003123;28;20037;-58
2023/12/14 12:48:46;;;;;;;7.28;4.13;;;3.60;99.90;;;;;;5002139;28;20025;-59